createdAt,value
2018-06-04T00:01:15.530Z,6.53
2018-06-04T00:03:45.255Z,6.73
2018-06-04T00:06:14.037Z,6.33
2018-06-04T00:08:42.849Z,7.27
2018-06-04T00:11:12.116Z,6.07
2018-06-04T00:13:41.289Z,6.60
2018-06-04T00:16:10.013Z,6.67
2018-06-04T00:18:38.787Z,7.60
2018-06-04T00:21:07.558Z,7.70
2018-06-04T00:23:36.381Z,7.50
2018-06-04T00:26:06.324Z,8.83
2018-06-04T00:28:35.126Z,7.70
2018-06-04T00:31:03.983Z,7.17
2018-06-04T00:33:32.897Z,7.50
2018-06-04T00:36:01.732Z,6.73
2018-06-04T00:38:30.825Z,7.73
2018-06-04T00:40:59.624Z,7.73
2018-06-04T00:43:28.309Z,7.10
2018-06-04T00:45:57.752Z,7.67
2018-06-04T00:48:27.663Z,7.20
2018-06-04T00:50:56.896Z,6.67
2018-06-04T00:53:25.725Z,7.00
2018-06-04T00:56:05.728Z,7.20
2018-06-04T00:58:34.565Z,7.30
2018-06-04T01:01:04.177Z,8.73
2018-06-04T01:03:33.045Z,7.70
2018-06-04T01:06:01.953Z,7.30
2018-06-04T01:08:32.037Z,8.47
2018-06-04T01:11:00.852Z,9.43
2018-06-04T01:13:29.642Z,7.53
2018-06-04T01:15:58.669Z,7.77
2018-06-04T01:18:28.094Z,8.17
2018-06-04T01:20:58.480Z,9.73
2018-06-04T01:23:27.512Z,7.90
2018-06-04T01:25:56.348Z,8.50
2018-06-04T01:28:25.568Z,9.77
2018-06-04T01:30:54.329Z,7.90
2018-06-04T01:33:23.380Z,7.80
2018-06-04T01:35:52.214Z,8.70
2018-06-04T01:38:21.876Z,8.63
2018-06-04T01:40:50.763Z,7.43
2018-06-04T01:43:19.547Z,7.10
2018-06-04T01:45:48.497Z,7.33
2018-06-04T01:48:19.060Z,9.90
2018-06-04T01:50:47.844Z,7.80
2018-06-04T01:53:17.584Z,8.37
2018-06-04T01:55:46.416Z,8.00
2018-06-04T01:58:15.235Z,8.13
2018-06-04T02:00:44.103Z,7.43
2018-06-04T02:03:13.540Z,6.80
2018-06-04T02:05:42.383Z,7.13
2018-06-04T02:08:11.228Z,8.93
2018-06-04T02:10:40.096Z,8.27
2018-06-04T02:13:09.880Z,8.50
2018-06-04T02:15:39.260Z,8.10
2018-06-04T02:18:07.960Z,8.50
2018-06-04T02:20:37.045Z,7.60
2018-06-04T02:23:05.819Z,8.83
2018-06-04T02:25:34.580Z,7.83
2018-06-04T02:28:03.837Z,7.63
2018-06-04T02:30:32.624Z,8.10
2018-06-04T02:33:01.420Z,7.77
2018-06-04T02:35:30.227Z,8.73
2018-06-04T02:37:59.085Z,7.27
2018-06-04T02:40:29.235Z,8.00
2018-06-04T02:42:58.213Z,7.67
2018-06-04T02:45:27.027Z,8.50
2018-06-04T02:47:55.909Z,8.37
2018-06-04T02:50:24.680Z,9.07
2018-06-04T02:52:53.909Z,8.37
2018-06-04T02:55:22.754Z,8.10
2018-06-04T02:57:51.504Z,9.40
2018-06-04T03:00:21.035Z,8.67
2018-06-04T03:02:49.897Z,8.87
2018-06-04T03:05:18.768Z,8.70
2018-06-04T03:07:47.617Z,11.10
2018-06-04T03:10:16.256Z,7.93
2018-06-04T03:12:45.023Z,8.30
2018-06-04T03:15:13.888Z,7.63
2018-06-04T03:17:42.705Z,7.80
2018-06-04T03:20:12.596Z,7.63
2018-06-04T03:22:41.266Z,7.70
2018-06-04T03:25:10.493Z,7.70
2018-06-04T03:27:40.328Z,9.20
2018-06-04T03:30:09.557Z,8.40
2018-06-04T03:32:38.265Z,7.37
2018-06-04T03:35:07.056Z,8.43
2018-06-04T03:37:35.873Z,8.43
2018-06-04T03:40:04.782Z,7.63
2018-06-04T03:42:33.766Z,8.00
2018-06-04T03:45:03.564Z,8.90
2018-06-04T03:47:32.427Z,8.60
2018-06-04T03:50:01.136Z,9.17
2018-06-04T03:52:30.021Z,8.90
2018-06-04T03:54:58.836Z,9.33
2018-06-04T03:57:27.625Z,8.33
2018-06-04T03:59:56.365Z,9.00
2018-06-04T04:02:25.319Z,8.50
2018-06-04T04:04:54.049Z,8.90
2018-06-04T04:07:22.961Z,8.80
2018-06-04T04:09:51.729Z,9.27
2018-06-04T04:12:20.722Z,9.47
2018-06-04T04:14:49.532Z,7.70
2018-06-04T04:17:18.288Z,8.73
2018-06-04T04:19:47.382Z,9.03
2018-06-04T04:22:16.179Z,8.83
2018-06-04T04:24:45.219Z,8.80
2018-06-04T04:27:14.096Z,9.50
2018-06-04T04:29:44.032Z,10.00
2018-06-04T04:32:13.304Z,9.13
2018-06-04T04:34:42.176Z,8.97
2018-06-04T04:37:10.859Z,10.50
2018-06-04T04:39:39.664Z,10.03
2018-06-04T04:42:08.528Z,9.97
2018-06-04T04:44:37.709Z,8.87
2018-06-04T04:47:06.722Z,9.63
2018-06-04T04:49:35.817Z,8.57
2018-06-04T04:52:04.645Z,8.70
2018-06-04T04:54:34.424Z,9.70
2018-06-04T04:57:03.404Z,9.20
2018-06-04T04:59:32.240Z,8.63
2018-06-04T05:02:00.992Z,7.90
2018-06-04T05:04:29.700Z,8.20
2018-06-04T05:06:59.436Z,7.83
2018-06-04T05:09:28.292Z,9.03
2018-06-04T05:11:57.091Z,9.40
2018-06-04T05:14:25.961Z,8.37
2018-06-04T05:16:54.865Z,9.40
2018-06-04T05:19:23.704Z,9.60
2018-06-04T05:21:52.532Z,9.70
2018-06-04T05:24:21.645Z,8.97
2018-06-04T05:26:50.590Z,9.57
2018-06-04T05:29:19.433Z,10.03
2018-06-04T05:31:48.412Z,11.30
2018-06-04T05:34:17.180Z,10.33
2018-06-04T05:36:45.842Z,11.73
2018-06-04T05:39:14.656Z,11.67
2018-06-04T05:41:43.626Z,9.97
2018-06-04T05:44:12.444Z,11.30
2018-06-04T05:46:41.327Z,12.57
2018-06-04T05:49:10.196Z,10.73
2018-06-04T05:51:39.063Z,11.20
2018-06-04T05:54:08.661Z,10.53
2018-06-04T05:56:37.536Z,10.90
2018-06-04T05:59:06.392Z,11.03
2018-06-04T06:01:35.137Z,11.13
2018-06-04T06:04:03.932Z,10.93
2018-06-04T06:06:32.945Z,9.57
2018-06-04T06:09:02.105Z,9.20
2018-06-04T06:11:30.995Z,9.47
2018-06-04T06:14:01.552Z,8.50
2018-06-04T06:16:32.012Z,9.50
2018-06-04T06:19:01.587Z,10.23
2018-06-04T06:21:30.406Z,9.33
2018-06-04T06:24:00.258Z,9.03
2018-06-04T06:26:29.388Z,8.43
2018-06-04T06:29:03.555Z,9.60
2018-06-04T06:31:32.964Z,9.53
2018-06-04T06:34:03.413Z,10.63
2018-06-04T06:36:33.422Z,9.60
2018-06-04T06:39:02.764Z,10.97
2018-06-04T06:41:31.384Z,9.43
2018-06-04T06:44:02.533Z,10.57
2018-06-04T06:46:32.533Z,10.23
2018-06-04T06:49:01.494Z,9.63
2018-06-04T06:51:30.948Z,9.77
2018-06-04T06:54:00.277Z,9.63
2018-06-04T06:56:29.135Z,8.70
2018-06-04T06:58:58.621Z,9.77
2018-06-04T07:01:29.289Z,8.87
2018-06-04T07:03:57.987Z,8.80
2018-06-04T07:06:27.685Z,9.93
2018-06-04T07:08:56.807Z,8.87
2018-06-04T07:11:26.089Z,9.60
2018-06-04T07:13:55.340Z,10.17
2018-06-04T07:16:24.230Z,8.73
2018-06-04T07:18:52.859Z,9.27
2018-06-04T07:21:21.697Z,9.23
2018-06-04T07:23:50.487Z,10.30
2018-06-04T07:26:19.311Z,8.07
2018-06-04T07:28:48.124Z,9.37
2018-06-04T07:31:17.771Z,9.37
2018-06-04T07:33:48.294Z,9.40
2018-06-04T07:36:17.589Z,10.20
2018-06-04T07:38:46.693Z,9.10
2018-06-04T07:41:16.005Z,9.13
2018-06-04T07:43:45.800Z,9.97
2018-06-04T07:46:15.409Z,10.20
2018-06-04T07:48:44.256Z,10.47
2018-06-04T07:51:13.108Z,9.50
2018-06-04T07:53:42.047Z,9.53
2018-06-04T07:56:10.847Z,10.10
2018-06-04T07:58:40.180Z,8.87
2018-06-04T08:01:09.225Z,9.03
2018-06-04T08:03:38.061Z,9.50
2018-06-04T08:06:06.883Z,10.13
2018-06-04T08:08:35.668Z,9.17
2018-06-04T08:11:04.425Z,9.70
2018-06-04T08:13:33.469Z,9.33
2018-06-04T08:16:02.311Z,9.97
2018-06-04T08:18:33.072Z,8.70
2018-06-04T08:21:04.437Z,8.03
2018-06-04T08:23:33.292Z,10.07
2018-06-04T08:26:02.117Z,8.40
2018-06-04T08:28:31.375Z,9.53
2018-06-04T08:31:00.260Z,8.60
2018-06-04T08:33:29.135Z,8.60
2018-06-04T08:35:57.844Z,8.77
2018-06-04T08:38:26.779Z,8.13
2018-06-04T08:40:56.148Z,9.00
2018-06-04T08:43:24.919Z,8.07
2018-06-04T08:45:53.855Z,8.20
2018-06-04T08:48:22.697Z,9.27
2018-06-04T08:50:51.636Z,9.30
2018-06-04T08:53:20.381Z,9.60
2018-06-04T08:55:50.045Z,8.40
2018-06-04T08:58:18.801Z,6.70
2018-06-04T09:00:47.662Z,7.43
2018-06-04T09:03:16.733Z,8.20
2018-06-04T09:05:45.542Z,6.73
2018-06-04T09:08:14.232Z,7.13
2018-06-04T09:10:43.040Z,6.57
2018-06-04T09:13:21.401Z,6.67
2018-06-04T09:15:51.835Z,6.87
2018-06-04T09:18:22.608Z,6.30
2018-06-04T09:20:51.908Z,5.50
2018-06-04T09:23:20.844Z,5.33
2018-06-04T09:25:51.619Z,5.33
2018-06-04T09:28:20.554Z,5.63
2018-06-04T09:30:53.031Z,6.10
2018-06-04T09:33:22.279Z,5.30
2018-06-04T09:35:51.181Z,5.90
2018-06-04T09:38:20.078Z,5.83
2018-06-04T09:40:48.936Z,4.80
2018-06-04T09:43:21.073Z,4.87
2018-06-04T09:45:50.054Z,5.83
2018-06-04T09:48:19.316Z,4.60
2018-06-04T09:50:48.100Z,3.87
2018-06-04T09:53:16.913Z,4.47
2018-06-04T09:55:45.677Z,3.90
2018-06-04T09:58:14.636Z,3.77
2018-06-04T10:00:43.617Z,4.00
2018-06-04T10:03:12.518Z,4.80
2018-06-04T10:05:41.369Z,4.10
2018-06-04T10:08:10.077Z,3.40
2018-06-04T10:10:39.348Z,3.30
2018-06-04T10:13:08.057Z,3.67
2018-06-04T10:15:37.376Z,3.50
2018-06-04T10:18:06.908Z,3.45
2018-06-04T10:20:35.713Z,3.47
2018-06-04T10:23:04.866Z,3.70
2018-06-04T10:25:33.807Z,3.45
2018-06-04T10:28:02.680Z,3.75
2018-06-04T10:30:31.509Z,3.20
2018-06-04T10:33:00.265Z,3.60
2018-06-04T10:35:29.193Z,3.33
2018-06-04T10:37:58.052Z,3.70
2018-06-04T10:40:26.879Z,3.90
2018-06-04T10:42:55.645Z,3.67
2018-06-04T10:45:24.515Z,3.90
2018-06-04T10:47:53.240Z,3.60
2018-06-04T10:50:21.999Z,3.63
2018-06-04T10:52:50.840Z,4.30
2018-06-04T10:55:19.693Z,4.90
2018-06-04T10:57:48.564Z,3.80
2018-06-04T11:00:17.746Z,3.77
2018-06-04T11:02:46.616Z,3.80
2018-06-04T11:05:16.449Z,3.50
2018-06-04T11:07:45.228Z,3.30
2018-06-04T11:10:13.820Z,3.20
2018-06-04T11:12:42.653Z,3.53
2018-06-04T11:15:11.616Z,3.77
2018-06-04T11:17:41.291Z,3.03
2018-06-04T11:20:10.144Z,2.93
2018-06-04T11:22:38.893Z,3.17
2018-06-04T11:25:08.076Z,2.97
2018-06-04T11:27:36.900Z,4.10
2018-06-04T11:30:06.146Z,4.67
2018-06-04T11:32:35.064Z,4.30
2018-06-04T11:35:03.864Z,3.97
2018-06-04T11:37:33.045Z,4.13
2018-06-04T11:40:01.900Z,2.97
2018-06-04T11:42:30.838Z,3.90
2018-06-04T11:44:59.663Z,3.20
2018-06-04T11:47:28.375Z,3.63
2018-06-04T11:49:57.476Z,2.97
2018-06-04T11:52:26.404Z,3.17
2018-06-04T11:54:55.193Z,2.57
2018-06-04T11:57:24.111Z,3.03
2018-06-04T11:59:52.973Z,3.50
2018-06-04T12:02:22.068Z,3.08
2018-06-04T12:04:50.867Z,2.60
2018-06-04T12:07:20.150Z,3.40
2018-06-04T12:09:48.976Z,2.62
2018-06-04T12:12:17.638Z,3.33
2018-06-04T12:14:46.492Z,3.35
2018-06-04T12:17:15.312Z,3.02
2018-06-04T12:19:44.148Z,2.98
2018-06-04T12:22:13.009Z,3.40
2018-06-04T12:24:41.880Z,2.90
2018-06-04T12:27:10.788Z,2.40
2018-06-04T12:29:40.216Z,2.50
2018-06-04T12:32:09.179Z,2.58
2018-06-04T12:34:37.976Z,2.60
2018-06-04T12:37:06.900Z,2.47
2018-06-04T12:39:35.918Z,2.52
2018-06-04T12:42:04.728Z,2.60
2018-06-04T12:44:33.408Z,2.50
2018-06-04T12:47:02.227Z,2.15
2018-06-04T12:49:31.367Z,2.45
2018-06-04T12:52:00.325Z,2.60
2018-06-04T12:54:29.118Z,2.25
2018-06-04T12:56:58.131Z,2.33
2018-06-04T12:59:27.165Z,2.50
2018-06-04T13:01:56.169Z,2.47
2018-06-04T13:04:25.147Z,3.12
2018-06-04T13:06:53.843Z,2.70
2018-06-04T13:09:22.684Z,2.80
2018-06-04T13:11:52.521Z,3.30
2018-06-04T13:14:21.328Z,3.00
2018-06-04T13:16:50.606Z,2.70
2018-06-04T13:19:20.174Z,2.70
2018-06-04T13:21:48.915Z,3.00
2018-06-04T13:24:18.240Z,2.73
2018-06-04T13:26:48.964Z,3.50
2018-06-04T13:29:17.787Z,2.90
2018-06-04T13:31:46.641Z,3.20
2018-06-04T13:34:15.698Z,3.07
2018-06-04T13:36:44.540Z,2.92
2018-06-04T13:39:13.567Z,2.85
2018-06-04T13:41:42.716Z,2.77
2018-06-04T13:44:11.452Z,2.50
2018-06-04T13:46:42.397Z,2.87
2018-06-04T13:49:11.306Z,3.00
2018-06-04T13:51:40.012Z,2.87
2018-06-04T13:54:09.162Z,3.10
2018-06-04T13:56:37.896Z,3.50
2018-06-04T13:59:07.100Z,3.27
2018-06-04T14:01:36.728Z,3.05
2018-06-04T14:04:05.487Z,3.02
2018-06-04T14:06:34.308Z,3.20
2018-06-04T14:09:03.536Z,3.47
2018-06-04T14:11:32.748Z,3.47
2018-06-04T14:14:01.565Z,4.00
2018-06-04T14:16:30.408Z,3.77
2018-06-04T14:18:59.615Z,4.70
2018-06-04T14:21:28.440Z,3.80
2018-06-04T14:23:57.578Z,4.10
2018-06-04T14:26:27.290Z,3.73
2018-06-04T14:28:56.347Z,4.07
2018-06-04T14:31:25.172Z,3.83
2018-06-04T14:33:54.209Z,3.27
2018-06-04T14:36:23.012Z,4.40
2018-06-04T14:38:52.139Z,3.47
2018-06-04T14:41:21.059Z,4.07
2018-06-04T14:43:51.149Z,3.90
2018-06-04T14:46:20.632Z,3.50
2018-06-04T14:48:50.161Z,3.97
2018-06-04T14:51:19.053Z,3.90
2018-06-04T14:53:47.923Z,3.70
2018-06-04T14:56:17.198Z,3.50
2018-06-04T14:58:45.909Z,3.97
2018-06-04T15:01:14.802Z,3.80
2018-06-04T15:03:44.000Z,3.43
2018-06-04T15:06:13.231Z,3.27
2018-06-04T15:08:42.252Z,4.30
2018-06-04T15:11:11.302Z,3.77
2018-06-04T15:13:40.373Z,3.73
2018-06-04T15:16:09.573Z,3.80
2018-06-04T15:18:38.738Z,4.70
2018-06-04T15:21:07.925Z,7.60
2018-06-04T15:23:37.224Z,5.17
2018-06-04T15:26:05.841Z,5.60
2018-06-04T15:28:35.222Z,4.20
2018-06-04T15:31:04.474Z,4.77
2018-06-04T15:33:34.966Z,3.63
2018-06-04T15:36:03.784Z,4.20
2018-06-04T15:38:33.223Z,4.10
2018-06-04T15:41:02.467Z,4.67
2018-06-04T15:43:32.723Z,4.20
2018-06-04T15:46:02.756Z,4.60
2018-06-04T15:48:39.576Z,4.80
2018-06-04T15:51:09.862Z,5.10
2018-06-04T15:53:42.867Z,4.50
2018-06-04T15:56:11.964Z,4.37
2018-06-04T15:58:40.976Z,5.03
2018-06-04T16:01:10.079Z,5.20
2018-06-04T16:03:38.795Z,5.30
2018-06-04T16:06:09.340Z,4.70
2018-06-04T16:08:38.565Z,4.80
2018-06-04T16:11:13.487Z,5.50
2018-06-04T16:13:44.536Z,5.80
2018-06-04T16:16:13.475Z,4.90
2018-06-04T16:18:42.402Z,5.67
2018-06-04T16:21:12.176Z,5.37
2018-06-04T16:23:40.936Z,5.30
2018-06-04T16:26:09.912Z,5.57
2018-06-04T16:28:38.725Z,4.53
2018-06-04T16:31:07.924Z,5.20
2018-06-04T16:33:37.052Z,5.60
2018-06-04T16:36:06.191Z,6.87
2018-06-04T16:38:34.940Z,6.13
2018-06-04T16:41:03.844Z,5.00
2018-06-04T16:43:33.199Z,5.47
2018-06-04T16:46:02.124Z,5.30
2018-06-04T16:48:31.040Z,5.57
2018-06-04T16:51:02.257Z,5.80
2018-06-04T16:53:31.071Z,5.30
2018-06-04T16:56:01.258Z,5.40
2018-06-04T16:58:30.480Z,5.60
2018-06-04T17:00:59.225Z,6.73
2018-06-04T17:03:28.625Z,5.23
2018-06-04T17:05:57.428Z,5.97
2018-06-04T17:08:26.450Z,5.70
2018-06-04T17:10:55.268Z,5.57
2018-06-04T17:13:24.152Z,5.50
2018-06-04T17:15:52.889Z,4.73
2018-06-04T17:18:22.695Z,5.53
2018-06-04T17:20:52.524Z,6.20
2018-06-04T17:23:21.348Z,6.53
2018-06-04T17:25:50.557Z,5.83
2018-06-04T17:28:19.225Z,6.90
2018-06-04T17:30:47.896Z,5.00
2018-06-04T17:33:17.188Z,5.20
2018-06-04T17:35:46.044Z,5.47
2018-06-04T17:38:15.195Z,4.90
2018-06-04T17:40:44.273Z,5.70
2018-06-04T17:43:14.043Z,5.17
2018-06-04T17:45:43.740Z,5.50
2018-06-04T17:48:13.055Z,5.30
2018-06-04T17:50:42.409Z,5.60
2018-06-04T17:53:11.546Z,5.10
2018-06-04T17:55:40.249Z,5.13
2018-06-04T17:58:09.088Z,6.17
2018-06-04T18:00:38.348Z,5.30
2018-06-04T18:03:07.448Z,4.50
2018-06-04T18:05:36.818Z,5.10
2018-06-04T18:08:07.560Z,5.40
2018-06-04T18:10:36.536Z,5.00
2018-06-04T18:13:05.508Z,4.53
2018-06-04T18:15:35.348Z,5.83
2018-06-04T18:18:10.479Z,5.30
2018-06-04T18:20:40.049Z,4.83
2018-06-04T18:23:09.058Z,4.47
2018-06-04T18:25:39.421Z,5.20
2018-06-04T18:28:09.549Z,4.50
2018-06-04T18:30:38.815Z,5.00
2018-06-04T18:33:07.902Z,4.67
2018-06-04T18:35:36.807Z,4.37
2018-06-04T18:38:06.457Z,4.93
2018-06-04T18:40:35.851Z,4.53
2018-06-04T18:43:05.228Z,4.70
2018-06-04T18:45:34.694Z,4.73
2018-06-04T18:48:03.838Z,4.70
2018-06-04T18:50:33.036Z,4.30
2018-06-04T18:53:02.448Z,5.43
2018-06-04T18:55:31.411Z,5.83
2018-06-04T18:58:02.089Z,5.10
2018-06-04T19:00:31.453Z,4.80
2018-06-04T19:03:00.862Z,4.77
2018-06-04T19:05:30.362Z,4.80
2018-06-04T19:08:00.457Z,5.00
2018-06-04T19:10:30.741Z,5.07
2018-06-04T19:13:01.284Z,5.17
2018-06-04T19:15:31.931Z,5.00
2018-06-04T19:18:01.443Z,4.63
2018-06-04T19:20:31.047Z,5.03
2018-06-04T19:23:00.452Z,6.27
2018-06-04T19:25:29.895Z,5.33
2018-06-04T19:27:59.724Z,5.20
2018-06-04T19:30:30.223Z,5.10
2018-06-04T19:33:00.361Z,4.57
2018-06-04T19:35:33.584Z,5.33
2018-06-04T19:38:02.978Z,6.80
2018-06-04T19:40:32.759Z,5.90
2018-06-04T19:43:03.245Z,5.27
2018-06-04T19:45:32.753Z,5.30
2018-06-04T19:48:02.348Z,5.80
2018-06-04T19:50:32.998Z,5.80
2018-06-04T19:53:02.996Z,5.80
2018-06-04T19:55:32.659Z,5.40
2018-06-04T19:58:01.998Z,5.97
2018-06-04T20:00:32.648Z,5.90
2018-06-04T20:03:02.614Z,7.50
2018-06-04T20:05:33.531Z,12.47
2018-06-04T20:08:03.848Z,12.27
2018-06-04T20:10:33.340Z,13.00
2018-06-04T20:13:03.696Z,11.77
2018-06-04T20:15:33.099Z,15.40
2018-06-04T20:18:02.640Z,11.77
2018-06-04T20:20:31.795Z,9.60
2018-06-04T20:23:01.300Z,8.67
2018-06-04T20:25:32.087Z,7.17
2018-06-04T20:28:02.273Z,7.10
2018-06-04T20:30:32.668Z,6.70
2018-06-04T20:33:02.499Z,7.27
2018-06-04T20:35:31.521Z,5.43
2018-06-04T20:38:00.277Z,5.57
2018-06-04T20:40:29.495Z,5.70
2018-06-04T20:42:58.500Z,6.73
2018-06-04T20:45:27.854Z,5.20
2018-06-04T20:47:57.543Z,6.77
2018-06-04T20:50:26.472Z,6.30
2018-06-04T20:52:56.076Z,5.97
2018-06-04T20:55:25.032Z,5.57
2018-06-04T20:57:54.253Z,6.17
2018-06-04T21:00:23.116Z,6.37
2018-06-04T21:02:52.261Z,6.40
2018-06-04T21:05:21.496Z,5.90
2018-06-04T21:07:50.992Z,5.33
2018-06-04T21:10:20.913Z,6.33
2018-06-04T21:12:49.961Z,6.53
2018-06-04T21:15:19.146Z,6.40
2018-06-04T21:17:47.975Z,6.27
2018-06-04T21:20:17.029Z,7.70
2018-06-04T21:22:45.848Z,6.10
2018-06-04T21:25:15.248Z,7.57
2018-06-04T21:27:44.207Z,7.47
2018-06-04T21:30:13.434Z,6.77
2018-06-04T21:32:42.627Z,6.60
2018-06-04T21:35:11.428Z,7.97
2018-06-04T21:37:40.259Z,7.40
2018-06-04T21:40:09.312Z,6.70
2018-06-04T21:42:38.153Z,7.00
2018-06-04T21:45:07.116Z,6.73
2018-06-04T21:47:35.944Z,6.83
2018-06-04T21:50:04.944Z,6.57
2018-06-04T21:52:34.796Z,6.13
2018-06-04T21:55:03.687Z,6.90
2018-06-04T21:57:32.735Z,6.70
2018-06-04T22:00:01.691Z,7.47
2018-06-04T22:02:30.835Z,7.20
2018-06-04T22:04:59.673Z,6.60
2018-06-04T22:07:28.545Z,8.17
2018-06-04T22:09:57.433Z,6.67
2018-06-04T22:12:26.279Z,8.03
2018-06-04T22:14:55.421Z,7.20
2018-06-04T22:17:24.559Z,7.50
2018-06-04T22:19:54.260Z,7.70
2018-06-04T22:22:23.132Z,8.30
2018-06-04T22:24:51.895Z,8.17
2018-06-04T22:27:20.719Z,7.40
2018-06-04T22:29:49.480Z,8.07
2018-06-04T23:37:49.035Z,9.43
2018-06-04T23:40:17.852Z,9.57
2018-06-04T23:42:47.324Z,10.07
2018-06-04T23:45:16.079Z,9.03
2018-06-04T23:47:44.837Z,10.27
2018-06-04T23:50:13.587Z,10.13
2018-06-04T23:52:43.083Z,8.90
2018-06-04T23:55:11.759Z,10.30
2018-06-04T23:57:40.567Z,9.83
